createdAt,value
2019-02-14T00:00:03.052Z,1035.87
2019-02-14T00:05:02.624Z,1036.0
2019-02-14T00:10:03.127Z,1035.98
2019-02-14T00:15:02.591Z,1035.95
2019-02-14T00:20:02.988Z,1036.03
2019-02-14T00:25:02.448Z,1036.03
2019-02-14T00:30:02.864Z,1036.04
2019-02-14T00:35:03.297Z,1036.01
2019-02-14T00:40:02.708Z,1035.93
2019-02-14T00:45:03.163Z,1035.93
2019-02-14T00:50:02.587Z,1035.96
2019-02-14T00:55:02.914Z,1035.93
2019-02-14T01:00:03.284Z,1035.9
2019-02-14T01:05:02.616Z,1035.83
2019-02-14T01:10:03.157Z,1035.91
2019-02-14T01:15:02.576Z,1036.0
2019-02-14T01:20:03.031Z,1036.01
2019-02-14T01:25:02.398Z,1035.87
2019-02-14T01:30:02.768Z,1035.83
2019-02-14T01:35:03.110Z,1035.81
2019-02-14T01:40:02.507Z,1035.9
2019-02-14T01:45:02.892Z,1035.82
2019-02-14T01:50:03.293Z,1035.8
2019-02-14T01:55:01.812Z,1035.78
2019-02-14T02:00:03.153Z,1035.77
2019-02-14T02:05:02.563Z,1035.83
2019-02-14T02:10:03.017Z,1035.81
2019-02-14T02:15:02.439Z,1035.73
2019-02-14T02:20:02.876Z,1035.71
2019-02-14T02:25:03.214Z,1035.59
2019-02-14T02:30:02.645Z,1035.6
2019-02-14T02:35:03.089Z,1035.59
2019-02-14T02:40:02.510Z,1035.61
2019-02-14T02:45:02.835Z,1035.62
2019-02-14T02:50:03.176Z,1035.69
2019-02-14T02:55:02.600Z,1035.63
2019-02-14T03:00:03.041Z,1035.67
2019-02-14T03:05:02.459Z,1035.73
2019-02-14T03:10:02.905Z,1035.75
2019-02-14T03:15:03.252Z,1035.7
2019-02-14T03:20:02.662Z,1035.7
2019-02-14T03:25:03.111Z,1035.73
2019-02-14T03:30:02.525Z,1035.73
2019-02-14T03:35:02.879Z,1035.69
2019-02-14T03:40:03.309Z,1035.81
2019-02-14T03:45:02.732Z,1035.83
2019-02-14T03:50:03.072Z,1035.81
2019-02-14T03:55:02.528Z,1035.81
2019-02-14T04:00:02.941Z,1035.87
2019-02-14T04:05:03.376Z,1035.91
2019-02-14T04:10:02.800Z,1035.89
2019-02-14T04:15:03.148Z,1035.95
2019-02-14T04:20:02.555Z,1035.92
2019-02-14T04:25:02.896Z,1035.98
2019-02-14T04:30:02.417Z,1036.03
2019-02-14T04:35:02.763Z,1036.15
2019-02-14T04:40:03.225Z,1036.19
2019-02-14T04:45:02.618Z,1036.19
2019-02-14T04:50:02.963Z,1036.16
2019-02-14T04:55:03.304Z,1036.05
2019-02-14T05:00:02.716Z,1036.02
2019-02-14T05:05:03.064Z,1036.06
2019-02-14T05:10:02.476Z,1036.11
2019-02-14T05:15:02.820Z,1036.36
2019-02-14T05:20:03.164Z,1036.35
2019-02-14T05:25:02.592Z,1036.38
2019-02-14T05:30:03.338Z,1036.36
2019-02-14T05:35:02.741Z,1036.33
2019-02-14T05:40:03.201Z,1036.28
2019-02-14T05:45:02.618Z,1036.34
2019-02-14T05:50:02.944Z,1036.28
2019-02-14T05:55:03.299Z,1036.28
2019-02-14T06:00:02.704Z,1036.24
2019-02-14T06:05:03.059Z,1036.26
2019-02-14T06:10:02.573Z,1036.26
2019-02-14T06:15:02.929Z,1036.37
2019-02-14T06:20:03.361Z,1036.35
2019-02-14T06:25:02.794Z,1036.27
2019-02-14T06:30:03.219Z,1036.36
2019-02-14T06:35:02.540Z,1036.44
2019-02-14T06:40:02.999Z,1036.52
2019-02-14T06:45:02.415Z,1036.5
2019-02-14T06:50:02.854Z,1036.5
2019-02-14T06:55:03.184Z,1036.5
2019-02-14T07:00:01.792Z,1036.59
2019-02-14T07:05:03.261Z,1036.56
2019-02-14T07:10:02.664Z,1036.71
2019-02-14T07:15:03.019Z,1036.82
2019-02-14T07:20:02.431Z,1036.79
2019-02-14T07:25:02.787Z,1036.72
2019-02-14T07:30:03.224Z,1036.76
2019-02-14T07:35:02.525Z,1036.82
2019-02-14T07:40:02.976Z,1036.97
2019-02-14T07:45:02.400Z,1037.04
2019-02-14T07:50:02.741Z,1037.06
2019-02-14T07:55:03.218Z,1037.05
2019-02-14T08:00:02.590Z,1037.02
2019-02-14T08:05:03.046Z,1037.08
2019-02-14T08:10:02.461Z,1037.06
2019-02-14T08:15:02.804Z,1037.0
2019-02-14T08:20:03.155Z,1037.01
2019-02-14T08:25:02.570Z,1037.0
2019-02-14T08:30:03.008Z,1037.07
2019-02-14T08:35:02.431Z,1037.11
2019-02-14T08:40:02.828Z,1037.14
2019-02-14T08:45:03.215Z,1037.13
2019-02-14T08:50:02.626Z,1037.18
2019-02-14T08:55:02.985Z,1036.99
2019-02-14T09:00:02.389Z,1037.09
2019-02-14T09:05:02.743Z,1037.04
2019-02-14T09:10:03.176Z,1036.99
2019-02-14T09:15:02.591Z,1036.96
2019-02-14T09:20:03.034Z,1036.98
2019-02-14T09:25:02.464Z,1037.07
2019-02-14T09:30:03.023Z,1036.93
2019-02-14T09:35:02.424Z,1036.92
2019-02-14T09:40:02.873Z,1036.86
2019-02-14T09:45:03.309Z,1036.83
2019-02-14T09:50:02.724Z,1036.87
2019-02-14T09:55:03.082Z,1036.95
2019-02-14T10:00:02.515Z,1036.99
2019-02-14T10:05:02.940Z,1036.95
2019-02-14T10:10:02.399Z,1036.9
2019-02-14T10:15:02.798Z,1036.93
2019-02-14T10:20:02.432Z,1036.88
2019-02-14T10:25:02.862Z,1036.9
2019-02-14T10:30:03.327Z,1036.85
2019-02-14T10:35:02.710Z,1036.86
2019-02-14T10:40:03.164Z,1036.89
2019-02-14T10:45:02.493Z,1036.92
2019-02-14T10:50:02.927Z,1036.95
2019-02-14T10:55:03.584Z,1036.82
2019-02-14T11:00:02.993Z,1036.82
2019-02-14T11:05:02.422Z,1036.89
2019-02-14T11:10:02.810Z,1036.84
2019-02-14T11:15:03.195Z,1036.77
2019-02-14T11:20:02.617Z,1036.81
2019-02-14T11:25:02.966Z,1036.75
2019-02-14T11:30:02.379Z,1036.71
2019-02-14T11:35:02.713Z,1036.71
2019-02-14T11:40:03.164Z,1036.61
2019-02-14T11:45:02.577Z,1036.59
2019-02-14T11:50:03.024Z,1036.55
2019-02-14T11:55:02.444Z,1036.47
2019-02-14T12:00:02.786Z,1036.42
2019-02-14T12:05:03.127Z,1036.34
2019-02-14T12:10:02.535Z,1036.22
2019-02-14T12:15:02.896Z,1036.26
2019-02-14T12:20:03.232Z,1036.22
2019-02-14T12:25:02.662Z,1036.2
2019-02-14T12:30:03.031Z,1036.18
2019-02-14T12:35:02.415Z,1036.18
2019-02-14T12:40:02.893Z,1036.12
2019-02-14T12:45:03.318Z,1036.15
2019-02-14T12:50:02.714Z,1036.12
2019-02-14T12:55:02.406Z,1036.0
2019-02-14T13:00:02.772Z,1035.95
2019-02-14T13:05:03.132Z,1036.02
2019-02-14T13:10:02.629Z,1035.93
2019-02-14T13:15:02.992Z,1035.97
2019-02-14T13:20:02.334Z,1035.92
2019-02-14T13:25:02.741Z,1035.93
2019-02-14T13:30:03.183Z,1035.83
2019-02-14T13:35:02.530Z,1035.94
2019-02-14T13:40:02.977Z,1035.89
2019-02-14T13:45:02.370Z,1035.84
2019-02-14T13:50:02.804Z,1035.8
2019-02-14T13:55:03.149Z,1035.82
2019-02-14T14:00:02.563Z,1035.75
2019-02-14T14:05:02.917Z,1035.66
2019-02-14T14:10:02.328Z,1035.69
2019-02-14T14:15:02.777Z,1035.67
2019-02-14T14:20:03.216Z,1035.6
2019-02-14T14:25:02.632Z,1035.65
2019-02-14T14:30:02.970Z,1035.58
2019-02-14T14:35:02.392Z,1035.51
2019-02-14T14:40:02.832Z,1035.45
2019-02-14T14:45:03.221Z,1035.31
2019-02-14T14:50:02.590Z,1035.22
2019-02-14T14:55:03.042Z,1035.27
2019-02-14T15:00:02.366Z,1035.2
2019-02-14T15:05:02.806Z,1035.16
2019-02-14T15:10:03.246Z,1035.12
2019-02-14T15:15:02.662Z,1034.97
2019-02-14T15:20:03.006Z,1035.02
2019-02-14T15:25:02.425Z,1034.97
2019-02-14T15:30:01.965Z,1034.97
2019-02-14T15:35:02.346Z,1034.9
2019-02-14T15:40:09.407Z,1034.84
2019-02-14T15:45:03.280Z,1034.75
2019-02-14T15:50:04.354Z,1034.69
2019-02-14T15:55:02.319Z,1034.69
2019-02-14T16:00:04.767Z,1034.68
2019-02-14T16:05:02.493Z,1034.68
2019-02-14T16:10:05.427Z,1034.7
2019-02-14T16:15:04.421Z,1034.84
2019-02-14T16:20:02.601Z,1034.76
2019-02-14T16:25:04.578Z,1034.82
2019-02-14T16:30:04.857Z,1034.72
2019-02-14T16:35:02.897Z,1034.67
2019-02-14T16:40:03.347Z,1034.64
2019-02-14T16:45:02.753Z,1034.66
2019-02-14T16:50:03.089Z,1034.64
2019-02-14T16:55:02.513Z,1034.56
2019-02-14T17:00:02.858Z,1034.65
2019-02-14T17:05:03.204Z,1034.68
2019-02-14T17:10:02.607Z,1034.7
2019-02-14T17:15:02.964Z,1034.72
2019-02-14T17:20:02.377Z,1034.72
2019-02-14T17:25:02.719Z,1034.7
2019-02-14T17:30:03.164Z,1034.81
2019-02-14T17:35:02.571Z,1034.82
2019-02-14T17:40:03.017Z,1034.84
2019-02-14T17:45:02.469Z,1034.84
2019-02-14T17:50:02.886Z,1034.9
2019-02-14T17:55:03.230Z,1034.84
2019-02-14T18:00:02.640Z,1034.79
2019-02-14T18:05:02.203Z,1034.82
2019-02-14T18:10:02.609Z,1034.77
2019-02-14T18:15:02.952Z,1034.7
2019-02-14T18:20:03.395Z,1034.75
2019-02-14T18:25:02.721Z,1034.75
2019-02-14T18:30:03.160Z,1034.72
2019-02-14T18:35:02.600Z,1034.71
2019-02-14T18:40:03.191Z,1034.71
2019-02-14T18:45:02.531Z,1034.67
2019-02-14T18:50:02.899Z,1034.65
2019-02-14T18:55:03.324Z,1034.68
2019-02-14T19:00:02.739Z,1034.63
2019-02-14T19:05:03.083Z,1034.63
2019-02-14T19:10:02.498Z,1034.61
2019-02-14T19:15:02.845Z,1034.73
2019-02-14T19:20:03.289Z,1034.65
2019-02-14T19:25:02.816Z,1034.61
2019-02-14T19:30:03.156Z,1034.65
2019-02-14T19:35:02.577Z,1034.63
2019-02-14T19:40:03.005Z,1034.64
2019-02-14T19:45:02.441Z,1034.7
2019-02-14T19:50:02.909Z,1034.71
2019-02-14T19:55:03.326Z,1034.66
2019-02-14T20:00:06.917Z,1034.7
2019-02-14T20:05:03.285Z,1034.69
2019-02-14T20:10:02.719Z,1034.64
2019-02-14T20:15:03.250Z,1034.63
2019-02-14T20:20:02.703Z,1034.68
2019-02-14T20:25:03.114Z,1034.69
2019-02-14T20:30:02.441Z,1034.63
2019-02-14T20:35:02.801Z,1034.6
2019-02-14T20:40:02.508Z,1034.54
2019-02-14T20:45:03.161Z,1034.58
2019-02-14T20:50:02.592Z,1034.6
2019-02-14T20:55:03.072Z,1034.52
2019-02-14T21:00:02.558Z,1034.49
2019-02-14T21:05:02.968Z,1034.46
2019-02-14T21:10:02.419Z,1034.41
2019-02-14T21:15:02.873Z,1034.42
2019-02-14T21:20:03.272Z,1034.44
2019-02-14T21:25:02.748Z,1034.39
2019-02-14T21:30:03.146Z,1034.29
2019-02-14T21:35:02.749Z,1034.3
2019-02-14T21:40:03.317Z,1034.4
2019-02-14T21:45:02.751Z,1034.43
2019-02-14T21:50:03.252Z,1034.27
2019-02-14T21:55:02.734Z,1034.36
2019-02-14T22:00:03.217Z,1034.29
2019-02-14T22:05:02.657Z,1034.17
2019-02-14T22:10:03.105Z,1034.19
2019-02-14T22:15:02.527Z,1034.19
2019-02-14T22:20:02.963Z,1034.21
2019-02-14T22:25:03.306Z,1034.17
2019-02-14T22:30:02.716Z,1034.12
2019-02-14T22:35:03.064Z,1034.17
2019-02-14T22:40:02.477Z,1034.22
2019-02-14T22:45:02.923Z,1034.22
2019-02-14T22:50:03.281Z,1034.2
2019-02-14T22:55:02.682Z,1034.22
2019-02-14T23:00:03.130Z,1034.23
2019-02-14T23:05:02.548Z,1034.26
2019-02-14T23:10:02.991Z,1034.27
2019-02-14T23:15:02.324Z,1034.28
2019-02-14T23:20:02.747Z,1034.22
2019-02-14T23:25:03.192Z,1034.28
2019-02-14T23:30:02.613Z,1034.28
2019-02-14T23:35:02.989Z,1034.44
2019-02-14T23:40:02.470Z,1034.38
2019-02-14T23:45:02.815Z,1034.37
2019-02-14T23:50:03.153Z,1034.35
2019-02-14T23:55:02.565Z,1034.39
